sensor_id;sensor_type;location;lat;lon;timestamp;temperature;humidity
49222;DHT22;35047;37.588;-122.048;2022-12-18T00:01:25;22.00;53.50
49222;DHT22;35047;37.588;-122.048;2022-12-18T00:03:54;21.80;53.30
49222;DHT22;35047;37.588;-122.048;2022-12-18T00:06:21;21.80;53.00
49222;DHT22;35047;37.588;-122.048;2022-12-18T00:08:49;21.80;53.10
49222;DHT22;35047;37.588;-122.048;2022-12-18T00:11:17;21.80;53.50
49222;DHT22;35047;37.588;-122.048;2022-12-18T00:13:44;21.80;53.00
49222;DHT22;35047;37.588;-122.048;2022-12-18T00:16:17;21.90;52.90
49222;DHT22;35047;37.588;-122.048;2022-12-18T00:18:50;21.80;52.60
49222;DHT22;35047;37.588;-122.048;2022-12-18T00:21:18;21.80;52.80
49222;DHT22;35047;37.588;-122.048;2022-12-18T00:23:44;21.90;52.60
49222;DHT22;35047;37.588;-122.048;2022-12-18T00:26:17;22.00;52.40
49222;DHT22;35047;37.588;-122.048;2022-12-18T00:28:43;22.00;52.20
49222;DHT22;35047;37.588;-122.048;2022-12-18T00:31:14;22.10;52.00
49222;DHT22;35047;37.588;-122.048;2022-12-18T00:33:43;22.00;52.10
49222;DHT22;35047;37.588;-122.048;2022-12-18T00:36:13;21.90;52.40
49222;DHT22;35047;37.588;-122.048;2022-12-18T00:38:41;21.90;52.40
49222;DHT22;35047;37.588;-122.048;2022-12-18T00:41:09;21.80;52.50
49222;DHT22;35047;37.588;-122.048;2022-12-18T00:43:37;21.90;52.50
49222;DHT22;35047;37.588;-122.048;2022-12-18T00:46:04;21.80;52.40
49222;DHT22;35047;37.588;-122.048;2022-12-18T00:48:31;21.70;52.50
49222;DHT22;35047;37.588;-122.048;2022-12-18T00:50:58;21.50;52.80
49222;DHT22;35047;37.588;-122.048;2022-12-18T00:53:25;21.40;52.90
49222;DHT22;35047;37.588;-122.048;2022-12-18T00:55:54;21.40;53.20
49222;DHT22;35047;37.588;-122.048;2022-12-18T00:58:20;21.50;53.10
49222;DHT22;35047;37.588;-122.048;2022-12-18T01:00:47;21.50;53.10
49222;DHT22;35047;37.588;-122.048;2022-12-18T01:03:14;21.50;53.20
49222;DHT22;35047;37.588;-122.048;2022-12-18T01:05:41;21.40;53.30
49222;DHT22;35047;37.588;-122.048;2022-12-18T01:08:09;21.30;53.40
49222;DHT22;35047;37.588;-122.048;2022-12-18T01:10:36;21.30;53.40
49222;DHT22;35047;37.588;-122.048;2022-12-18T01:13:03;21.20;53.50
49222;DHT22;35047;37.588;-122.048;2022-12-18T01:15:30;21.20;53.60
49222;DHT22;35047;37.588;-122.048;2022-12-18T01:17:57;21.10;53.80
49222;DHT22;35047;37.588;-122.048;2022-12-18T01:20:24;21.00;53.80
49222;DHT22;35047;37.588;-122.048;2022-12-18T01:22:50;20.90;54.00
49222;DHT22;35047;37.588;-122.048;2022-12-18T01:25:17;20.90;54.00
49222;DHT22;35047;37.588;-122.048;2022-12-18T01:27:44;20.80;54.20
49222;DHT22;35047;37.588;-122.048;2022-12-18T01:30:11;20.60;54.30
49222;DHT22;35047;37.588;-122.048;2022-12-18T01:32:38;20.60;54.40
49222;DHT22;35047;37.588;-122.048;2022-12-18T01:35:05;20.60;54.50
49222;DHT22;35047;37.588;-122.048;2022-12-18T01:37:32;20.50;54.60
49222;DHT22;35047;37.588;-122.048;2022-12-18T01:39:58;20.50;54.50
49222;DHT22;35047;37.588;-122.048;2022-12-18T01:42:25;20.40;54.60
49222;DHT22;35047;37.588;-122.048;2022-12-18T01:47:27;20.30;54.80
49222;DHT22;35047;37.588;-122.048;2022-12-18T01:49:57;20.30;54.80
49222;DHT22;35047;37.588;-122.048;2022-12-18T01:52:27;20.20;54.80
49222;DHT22;35047;37.588;-122.048;2022-12-18T01:54:55;20.20;54.70
49222;DHT22;35047;37.588;-122.048;2022-12-18T01:57:24;20.10;54.70
49222;DHT22;35047;37.588;-122.048;2022-12-18T01:59:53;20.10;54.80
49222;DHT22;35047;37.588;-122.048;2022-12-18T02:02:23;20.00;54.80
49222;DHT22;35047;37.588;-122.048;2022-12-18T02:04:49;19.90;55.00
49222;DHT22;35047;37.588;-122.048;2022-12-18T02:07:51;19.90;55.10
49222;DHT22;35047;37.588;-122.048;2022-12-18T02:10:54;19.90;55.10
49222;DHT22;35047;37.588;-122.048;2022-12-18T02:13:45;19.40;55.50
49222;DHT22;35047;37.588;-122.048;2022-12-18T02:16:21;19.30;55.80
49222;DHT22;35047;37.588;-122.048;2022-12-18T02:18:54;19.30;56.30
49222;DHT22;35047;37.588;-122.048;2022-12-18T02:24:29;19.30;56.00
49222;DHT22;35047;37.588;-122.048;2022-12-18T02:27:04;19.30;56.20
49222;DHT22;35047;37.588;-122.048;2022-12-18T02:29:46;19.30;56.10
49222;DHT22;35047;37.588;-122.048;2022-12-18T02:32:27;19.30;56.10
49222;DHT22;35047;37.588;-122.048;2022-12-18T02:34:55;19.20;56.40
49222;DHT22;35047;37.588;-122.048;2022-12-18T02:37:24;19.20;56.60
49222;DHT22;35047;37.588;-122.048;2022-12-18T02:39:55;19.20;56.50
49222;DHT22;35047;37.588;-122.048;2022-12-18T02:42:23;19.10;56.50
49222;DHT22;35047;37.588;-122.048;2022-12-18T02:44:51;19.10;56.50
49222;DHT22;35047;37.588;-122.048;2022-12-18T02:47:20;19.10;56.60
49222;DHT22;35047;37.588;-122.048;2022-12-18T02:55:10;18.90;56.90
49222;DHT22;35047;37.588;-122.048;2022-12-18T02:57:59;18.70;57.10
49222;DHT22;35047;37.588;-122.048;2022-12-18T03:00:41;18.70;57.40
49222;DHT22;35047;37.588;-122.048;2022-12-18T03:06:12;18.30;58.30
49222;DHT22;35047;37.588;-122.048;2022-12-18T03:08:46;18.10;58.80
49222;DHT22;35047;37.588;-122.048;2022-12-18T03:11:14;18.30;58.40
49222;DHT22;35047;37.588;-122.048;2022-12-18T03:14:04;18.30;58.30
49222;DHT22;35047;37.588;-122.048;2022-12-18T03:16:34;18.30;58.20
49222;DHT22;35047;37.588;-122.048;2022-12-18T03:19:16;18.40;58.10
49222;DHT22;35047;37.588;-122.048;2022-12-18T03:21:51;18.40;58.00
49222;DHT22;35047;37.588;-122.048;2022-12-18T03:24:21;18.40;57.90
49222;DHT22;35047;37.588;-122.048;2022-12-18T03:26:53;18.30;57.80
49222;DHT22;35047;37.588;-122.048;2022-12-18T03:29:36;18.20;57.90
49222;DHT22;35047;37.588;-122.048;2022-12-18T03:32:31;18.20;57.90
49222;DHT22;35047;37.588;-122.048;2022-12-18T03:35:00;18.20;57.90
49222;DHT22;35047;37.588;-122.048;2022-12-18T03:37:31;18.20;57.90
49222;DHT22;35047;37.588;-122.048;2022-12-18T03:39:58;18.10;57.90
49222;DHT22;35047;37.588;-122.048;2022-12-18T03:42:51;18.10;57.80
49222;DHT22;35047;37.588;-122.048;2022-12-18T03:50:48;18.00;57.90
49222;DHT22;35047;37.588;-122.048;2022-12-18T03:56:04;17.90;58.30
49222;DHT22;35047;37.588;-122.048;2022-12-18T03:58:33;17.80;60.40
49222;DHT22;35047;37.588;-122.048;2022-12-18T04:01:05;17.80;60.10
49222;DHT22;35047;37.588;-122.048;2022-12-18T04:03:34;17.70;58.60
49222;DHT22;35047;37.588;-122.048;2022-12-18T04:06:02;17.70;58.60
49222;DHT22;35047;37.588;-122.048;2022-12-18T04:08:29;17.60;58.90
49222;DHT22;35047;37.588;-122.048;2022-12-18T04:10:57;17.60;58.70
49222;DHT22;35047;37.588;-122.048;2022-12-18T04:13:27;17.50;58.80
49222;DHT22;35047;37.588;-122.048;2022-12-18T04:15:54;17.30;59.00
49222;DHT22;35047;37.588;-122.048;2022-12-18T04:18:21;17.20;59.30
49222;DHT22;35047;37.588;-122.048;2022-12-18T04:20:48;17.30;59.20
49222;DHT22;35047;37.588;-122.048;2022-12-18T04:23:16;17.30;59.40
49222;DHT22;35047;37.588;-122.048;2022-12-18T04:25:42;17.30;59.70
49222;DHT22;35047;37.588;-122.048;2022-12-18T04:28:10;17.20;60.30
49222;DHT22;35047;37.588;-122.048;2022-12-18T04:30:37;17.20;61.00
49222;DHT22;35047;37.588;-122.048;2022-12-18T04:33:07;17.10;60.40
49222;DHT22;35047;37.588;-122.048;2022-12-18T04:35:34;17.10;60.30
49222;DHT22;35047;37.588;-122.048;2022-12-18T04:38:01;17.00;60.80
49222;DHT22;35047;37.588;-122.048;2022-12-18T04:40:29;17.10;61.00
49222;DHT22;35047;37.588;-122.048;2022-12-18T04:42:55;17.00;60.80
49222;DHT22;35047;37.588;-122.048;2022-12-18T04:45:22;17.00;60.80
49222;DHT22;35047;37.588;-122.048;2022-12-18T04:47:48;17.00;61.10
49222;DHT22;35047;37.588;-122.048;2022-12-18T04:50:18;16.90;61.50
49222;DHT22;35047;37.588;-122.048;2022-12-18T04:52:44;16.90;61.80
49222;DHT22;35047;37.588;-122.048;2022-12-18T04:55:11;16.90;62.30
49222;DHT22;35047;37.588;-122.048;2022-12-18T04:57:38;16.90;63.40
49222;DHT22;35047;37.588;-122.048;2022-12-18T05:00:05;16.80;62.70
49222;DHT22;35047;37.588;-122.048;2022-12-18T05:02:33;16.80;61.40
49222;DHT22;35047;37.588;-122.048;2022-12-18T05:05:00;16.80;61.70
49222;DHT22;35047;37.588;-122.048;2022-12-18T05:07:27;16.70;61.10
49222;DHT22;35047;37.588;-122.048;2022-12-18T05:09:53;16.70;61.30
49222;DHT22;35047;37.588;-122.048;2022-12-18T05:12:24;16.60;61.00
49222;DHT22;35047;37.588;-122.048;2022-12-18T05:14:50;16.60;61.10
49222;DHT22;35047;37.588;-122.048;2022-12-18T05:17:18;16.60;61.30
49222;DHT22;35047;37.588;-122.048;2022-12-18T05:19:44;16.50;61.90
49222;DHT22;35047;37.588;-122.048;2022-12-18T05:22:12;16.50;63.30
49222;DHT22;35047;37.588;-122.048;2022-12-18T05:24:39;16.50;63.80
49222;DHT22;35047;37.588;-122.048;2022-12-18T05:27:05;16.50;64.10
49222;DHT22;35047;37.588;-122.048;2022-12-18T05:29:33;16.40;64.50
49222;DHT22;35047;37.588;-122.048;2022-12-18T05:32:00;16.40;64.00
49222;DHT22;35047;37.588;-122.048;2022-12-18T05:34:28;16.40;62.70
49222;DHT22;35047;37.588;-122.048;2022-12-18T05:36:54;16.30;62.40
49222;DHT22;35047;37.588;-122.048;2022-12-18T05:39:20;16.20;62.20
49222;DHT22;35047;37.588;-122.048;2022-12-18T05:41:48;16.20;62.70
49222;DHT22;35047;37.588;-122.048;2022-12-18T05:44:15;16.20;62.90
49222;DHT22;35047;37.588;-122.048;2022-12-18T05:46:42;16.20;63.20
49222;DHT22;35047;37.588;-122.048;2022-12-18T05:49:08;16.20;64.00
49222;DHT22;35047;37.588;-122.048;2022-12-18T05:51:35;16.10;64.40
49222;DHT22;35047;37.588;-122.048;2022-12-18T05:54:02;16.10;63.90
49222;DHT22;35047;37.588;-122.048;2022-12-18T05:56:28;16.20;63.60
49222;DHT22;35047;37.588;-122.048;2022-12-18T05:58:56;16.20;63.40
49222;DHT22;35047;37.588;-122.048;2022-12-18T06:01:25;16.20;63.70
49222;DHT22;35047;37.588;-122.048;2022-12-18T06:03:53;16.20;63.60
49222;DHT22;35047;37.588;-122.048;2022-12-18T06:06:23;16.10;63.20
49222;DHT22;35047;37.588;-122.048;2022-12-18T06:08:51;16.10;63.00
49222;DHT22;35047;37.588;-122.048;2022-12-18T06:11:24;16.10;62.40
49222;DHT22;35047;37.588;-122.048;2022-12-18T06:13:53;16.10;62.10
49222;DHT22;35047;37.588;-122.048;2022-12-18T06:16:21;16.10;62.10
49222;DHT22;35047;37.588;-122.048;2022-12-18T06:18:48;16.10;61.90
49222;DHT22;35047;37.588;-122.048;2022-12-18T06:21:15;16.00;61.80
49222;DHT22;35047;37.588;-122.048;2022-12-18T06:23:42;16.00;62.90
49222;DHT22;35047;37.588;-122.048;2022-12-18T06:26:11;15.90;62.50
49222;DHT22;35047;37.588;-122.048;2022-12-18T06:28:38;15.90;62.80
49222;DHT22;35047;37.588;-122.048;2022-12-18T06:31:05;15.90;62.90
49222;DHT22;35047;37.588;-122.048;2022-12-18T06:33:32;15.90;63.30
49222;DHT22;35047;37.588;-122.048;2022-12-18T06:36:05;15.80;62.80
49222;DHT22;35047;37.588;-122.048;2022-12-18T06:38:34;15.90;62.50
49222;DHT22;35047;37.588;-122.048;2022-12-18T06:41:05;15.80;60.50
49222;DHT22;35047;37.588;-122.048;2022-12-18T06:43:33;15.80;60.50
49222;DHT22;35047;37.588;-122.048;2022-12-18T06:46:00;15.80;60.60
49222;DHT22;35047;37.588;-122.048;2022-12-18T06:48:28;15.70;60.60
49222;DHT22;35047;37.588;-122.048;2022-12-18T06:50:54;15.70;60.40
49222;DHT22;35047;37.588;-122.048;2022-12-18T06:53:22;15.70;60.40
49222;DHT22;35047;37.588;-122.048;2022-12-18T06:55:49;15.70;60.40
49222;DHT22;35047;37.588;-122.048;2022-12-18T06:58:17;15.70;60.20
49222;DHT22;35047;37.588;-122.048;2022-12-18T07:00:44;15.40;61.20
49222;DHT22;35047;37.588;-122.048;2022-12-18T07:03:10;15.30;61.50
49222;DHT22;35047;37.588;-122.048;2022-12-18T07:05:41;15.20;61.70
49222;DHT22;35047;37.588;-122.048;2022-12-18T07:08:07;15.30;61.50
49222;DHT22;35047;37.588;-122.048;2022-12-18T07:10:42;15.20;61.40
49222;DHT22;35047;37.588;-122.048;2022-12-18T07:13:08;15.20;61.40
49222;DHT22;35047;37.588;-122.048;2022-12-18T07:15:35;15.20;61.40
49222;DHT22;35047;37.588;-122.048;2022-12-18T07:18:02;15.10;62.20
49222;DHT22;35047;37.588;-122.048;2022-12-18T07:20:29;15.20;61.60
49222;DHT22;35047;37.588;-122.048;2022-12-18T07:22:56;15.20;61.40
49222;DHT22;35047;37.588;-122.048;2022-12-18T07:25:23;15.00;61.60
49222;DHT22;35047;37.588;-122.048;2022-12-18T07:27:50;15.00;61.90
49222;DHT22;35047;37.588;-122.048;2022-12-18T07:30:17;15.00;62.00
49222;DHT22;35047;37.588;-122.048;2022-12-18T07:32:43;15.00;61.70
49222;DHT22;35047;37.588;-122.048;2022-12-18T07:35:10;15.10;61.60
49222;DHT22;35047;37.588;-122.048;2022-12-18T07:37:36;15.10;61.70
49222;DHT22;35047;37.588;-122.048;2022-12-18T07:40:03;15.00;61.90
49222;DHT22;35047;37.588;-122.048;2022-12-18T07:42:30;15.00;61.70
49222;DHT22;35047;37.588;-122.048;2022-12-18T07:45:01;14.90;62.10
49222;DHT22;35047;37.588;-122.048;2022-12-18T07:47:28;15.00;61.90
49222;DHT22;35047;37.588;-122.048;2022-12-18T07:49:55;14.80;62.00
49222;DHT22;35047;37.588;-122.048;2022-12-18T07:52:22;14.70;62.40
49222;DHT22;35047;37.588;-122.048;2022-12-18T07:54:50;14.70;62.50
49222;DHT22;35047;37.588;-122.048;2022-12-18T07:57:17;14.70;62.50
49222;DHT22;35047;37.588;-122.048;2022-12-18T07:59:44;14.50;63.90
49222;DHT22;35047;37.588;-122.048;2022-12-18T08:02:11;14.40;64.40
49222;DHT22;35047;37.588;-122.048;2022-12-18T08:04:38;14.40;64.20
49222;DHT22;35047;37.588;-122.048;2022-12-18T08:07:04;14.40;64.20
49222;DHT22;35047;37.588;-122.048;2022-12-18T08:09:31;14.60;63.70
49222;DHT22;35047;37.588;-122.048;2022-12-18T08:11:59;14.70;63.20
49222;DHT22;35047;37.588;-122.048;2022-12-18T08:14:27;14.80;63.10
49222;DHT22;35047;37.588;-122.048;2022-12-18T08:16:53;14.70;63.00
49222;DHT22;35047;37.588;-122.048;2022-12-18T08:19:20;14.70;63.00
49222;DHT22;35047;37.588;-122.048;2022-12-18T08:21:47;14.60;63.00
49222;DHT22;35047;37.588;-122.048;2022-12-18T08:24:14;14.70;62.90
49222;DHT22;35047;37.588;-122.048;2022-12-18T08:26:42;14.70;62.60
49222;DHT22;35047;37.588;-122.048;2022-12-18T08:29:09;14.70;62.40
49222;DHT22;35047;37.588;-122.048;2022-12-18T08:31:36;14.70;62.40
49222;DHT22;35047;37.588;-122.048;2022-12-18T08:34:03;14.70;62.30
49222;DHT22;35047;37.588;-122.048;2022-12-18T08:36:31;14.70;62.10
49222;DHT22;35047;37.588;-122.048;2022-12-18T08:38:57;14.70;62.10
49222;DHT22;35047;37.588;-122.048;2022-12-18T08:41:24;14.70;62.00
49222;DHT22;35047;37.588;-122.048;2022-12-18T08:43:52;14.60;62.00
49222;DHT22;35047;37.588;-122.048;2022-12-18T08:46:38;14.60;62.10
49222;DHT22;35047;37.588;-122.048;2022-12-18T08:49:06;14.50;62.30
49222;DHT22;35047;37.588;-122.048;2022-12-18T08:51:33;14.50;62.20
49222;DHT22;35047;37.588;-122.048;2022-12-18T08:54:02;14.50;61.90
49222;DHT22;35047;37.588;-122.048;2022-12-18T08:56:29;14.50;62.20
49222;DHT22;35047;37.588;-122.048;2022-12-18T08:58:56;14.50;62.20
49222;DHT22;35047;37.588;-122.048;2022-12-18T09:01:24;14.50;62.20
49222;DHT22;35047;37.588;-122.048;2022-12-18T09:03:51;14.50;62.20
49222;DHT22;35047;37.588;-122.048;2022-12-18T09:06:19;14.40;62.20
49222;DHT22;35047;37.588;-122.048;2022-12-18T09:08:47;14.40;62.60
49222;DHT22;35047;37.588;-122.048;2022-12-18T09:11:18;14.20;62.50
49222;DHT22;35047;37.588;-122.048;2022-12-18T09:13:45;14.10;63.00
49222;DHT22;35047;37.588;-122.048;2022-12-18T09:16:12;14.30;62.80
49222;DHT22;35047;37.588;-122.048;2022-12-18T09:18:39;14.30;62.70
49222;DHT22;35047;37.588;-122.048;2022-12-18T09:21:14;14.20;62.60
49222;DHT22;35047;37.588;-122.048;2022-12-18T09:23:42;13.90;62.60
49222;DHT22;35047;37.588;-122.048;2022-12-18T09:26:09;13.50;64.10
49222;DHT22;35047;37.588;-122.048;2022-12-18T09:28:36;13.80;63.70
49222;DHT22;35047;37.588;-122.048;2022-12-18T09:31:06;13.90;63.20
49222;DHT22;35047;37.588;-122.048;2022-12-18T09:33:36;14.00;63.10
49222;DHT22;35047;37.588;-122.048;2022-12-18T09:36:05;14.00;62.80
49222;DHT22;35047;37.588;-122.048;2022-12-18T09:38:32;14.00;62.60
49222;DHT22;35047;37.588;-122.048;2022-12-18T09:43:58;14.00;62.40
49222;DHT22;35047;37.588;-122.048;2022-12-18T09:46:37;13.80;63.00
49222;DHT22;35047;37.588;-122.048;2022-12-18T09:49:09;13.80;63.20
49222;DHT22;35047;37.588;-122.048;2022-12-18T09:51:49;13.90;62.90
49222;DHT22;35047;37.588;-122.048;2022-12-18T09:54:40;13.90;63.00
49222;DHT22;35047;37.588;-122.048;2022-12-18T09:57:18;13.90;62.70
49222;DHT22;35047;37.588;-122.048;2022-12-18T09:59:53;13.90;62.60
49222;DHT22;35047;37.588;-122.048;2022-12-18T10:02:23;13.80;62.80
49222;DHT22;35047;37.588;-122.048;2022-12-18T10:05:06;13.90;62.80
49222;DHT22;35047;37.588;-122.048;2022-12-18T10:24:53;13.20;64.30
49222;DHT22;35047;37.588;-122.048;2022-12-18T10:27:26;13.30;64.20
49222;DHT22;35047;37.588;-122.048;2022-12-18T10:29:53;12.90;64.70
49222;DHT22;35047;37.588;-122.048;2022-12-18T10:32:24;13.10;64.50
49222;DHT22;35047;37.588;-122.048;2022-12-18T10:34:52;13.30;64.20
49222;DHT22;35047;37.588;-122.048;2022-12-18T10:37:22;13.40;63.60
49222;DHT22;35047;37.588;-122.048;2022-12-18T10:40:14;13.50;63.60
49222;DHT22;35047;37.588;-122.048;2022-12-18T10:42:42;13.50;63.30
49222;DHT22;35047;37.588;-122.048;2022-12-18T10:45:13;13.40;63.70
49222;DHT22;35047;37.588;-122.048;2022-12-18T10:47:46;13.40;63.60
49222;DHT22;35047;37.588;-122.048;2022-12-18T10:50:32;13.40;63.60
49222;DHT22;35047;37.588;-122.048;2022-12-18T10:53:03;13.10;63.70
49222;DHT22;35047;37.588;-122.048;2022-12-18T10:55:38;13.10;64.10
49222;DHT22;35047;37.588;-122.048;2022-12-18T11:01:15;13.50;63.50
49222;DHT22;35047;37.588;-122.048;2022-12-18T11:06:21;13.60;63.00
49222;DHT22;35047;37.588;-122.048;2022-12-18T11:09:03;13.50;62.80
49222;DHT22;35047;37.588;-122.048;2022-12-18T11:11:32;13.60;62.60
49222;DHT22;35047;37.588;-122.048;2022-12-18T11:14:05;13.50;62.50
49222;DHT22;35047;37.588;-122.048;2022-12-18T11:16:45;13.50;62.60
49222;DHT22;35047;37.588;-122.048;2022-12-18T11:19:34;13.50;62.40
49222;DHT22;35047;37.588;-122.048;2022-12-18T11:22:25;13.40;62.60
49222;DHT22;35047;37.588;-122.048;2022-12-18T11:27:28;13.40;62.40
49222;DHT22;35047;37.588;-122.048;2022-12-18T11:38:24;13.50;62.10
49222;DHT22;35047;37.588;-122.048;2022-12-18T11:41:16;13.50;62.10
49222;DHT22;35047;37.588;-122.048;2022-12-18T11:44:02;13.40;62.00
49222;DHT22;35047;37.588;-122.048;2022-12-18T11:46:43;13.40;62.00
49222;DHT22;35047;37.588;-122.048;2022-12-18T11:51:56;13.30;62.30
49222;DHT22;35047;37.588;-122.048;2022-12-18T11:54:26;13.30;62.30
49222;DHT22;35047;37.588;-122.048;2022-12-18T11:57:03;13.30;62.10
49222;DHT22;35047;37.588;-122.048;2022-12-18T12:00:01;13.40;62.10
49222;DHT22;35047;37.588;-122.048;2022-12-18T12:03:00;13.30;62.20
49222;DHT22;35047;37.588;-122.048;2022-12-18T12:10:39;13.20;62.30
49222;DHT22;35047;37.588;-122.048;2022-12-18T12:13:28;13.30;62.40
49222;DHT22;35047;37.588;-122.048;2022-12-18T12:18:49;13.20;62.10
49222;DHT22;35047;37.588;-122.048;2022-12-18T12:27:20;13.20;62.30
49222;DHT22;35047;37.588;-122.048;2022-12-18T12:38:05;13.00;62.50
49222;DHT22;35047;37.588;-122.048;2022-12-18T12:40:39;13.00;62.40
49222;DHT22;35047;37.588;-122.048;2022-12-18T12:43:27;13.10;62.30
49222;DHT22;35047;37.588;-122.048;2022-12-18T12:46:05;13.00;62.60
49222;DHT22;35047;37.588;-122.048;2022-12-18T12:51:47;13.00;62.40
49222;DHT22;35047;37.588;-122.048;2022-12-18T12:53:55;12.90;62.30
49222;DHT22;35047;37.588;-122.048;2022-12-18T12:56:27;12.90;62.50
49222;DHT22;35047;37.588;-122.048;2022-12-18T13:07:00;13.00;62.00
49222;DHT22;35047;37.588;-122.048;2022-12-18T13:09:32;12.80;62.10
49222;DHT22;35047;37.588;-122.048;2022-12-18T13:12:07;12.80;62.60
49222;DHT22;35047;37.588;-122.048;2022-12-18T13:15:12;12.80;62.50
49222;DHT22;35047;37.588;-122.048;2022-12-18T13:17:40;12.90;62.20
49222;DHT22;35047;37.588;-122.048;2022-12-18T13:20:13;12.80;61.90
49222;DHT22;35047;37.588;-122.048;2022-12-18T13:22:47;12.90;62.20
49222;DHT22;35047;37.588;-122.048;2022-12-18T13:25:34;12.90;62.80
49222;DHT22;35047;37.588;-122.048;2022-12-18T13:38:25;12.80;62.40
49222;DHT22;35047;37.588;-122.048;2022-12-18T13:46:24;12.70;62.50
49222;DHT22;35047;37.588;-122.048;2022-12-18T13:49:00;12.80;62.30
49222;DHT22;35047;37.588;-122.048;2022-12-18T13:51:28;12.70;62.10
49222;DHT22;35047;37.588;-122.048;2022-12-18T13:54:00;12.80;62.00
49222;DHT22;35047;37.588;-122.048;2022-12-18T13:56:31;12.70;62.20
49222;DHT22;35047;37.588;-122.048;2022-12-18T13:59:18;12.80;62.40
49222;DHT22;35047;37.588;-122.048;2022-12-18T14:01:57;12.80;62.30
49222;DHT22;35047;37.588;-122.048;2022-12-18T14:04:28;12.70;62.30
49222;DHT22;35047;37.588;-122.048;2022-12-18T14:07:15;12.70;62.30
49222;DHT22;35047;37.588;-122.048;2022-12-18T14:09:54;12.70;62.10
49222;DHT22;35047;37.588;-122.048;2022-12-18T14:12:35;12.70;62.10
49222;DHT22;35047;37.588;-122.048;2022-12-18T14:18:14;12.70;62.10
49222;DHT22;35047;37.588;-122.048;2022-12-18T14:20:45;12.70;62.00
49222;DHT22;35047;37.588;-122.048;2022-12-18T14:23:32;12.60;62.00
49222;DHT22;35047;37.588;-122.048;2022-12-18T14:26:00;12.70;61.90
49222;DHT22;35047;37.588;-122.048;2022-12-18T14:28:27;12.70;61.90
49222;DHT22;35047;37.588;-122.048;2022-12-18T14:30:55;12.70;62.00
49222;DHT22;35047;37.588;-122.048;2022-12-18T14:33:27;12.60;62.20
49222;DHT22;35047;37.588;-122.048;2022-12-18T14:36:04;12.60;62.20
49222;DHT22;35047;37.588;-122.048;2022-12-18T14:41:12;12.30;62.60
49222;DHT22;35047;37.588;-122.048;2022-12-18T14:43:42;12.10;63.50
49222;DHT22;35047;37.588;-122.048;2022-12-18T14:49:29;12.10;63.10
49222;DHT22;35047;37.588;-122.048;2022-12-18T14:52:00;11.90;62.60
49222;DHT22;35047;37.588;-122.048;2022-12-18T14:54:28;11.60;64.00
49222;DHT22;35047;37.588;-122.048;2022-12-18T14:57:29;11.90;63.70
49222;DHT22;35047;37.588;-122.048;2022-12-18T14:59:55;12.10;63.30
49222;DHT22;35047;37.588;-122.048;2022-12-18T15:02:30;12.20;63.10
49222;DHT22;35047;37.588;-122.048;2022-12-18T15:07:47;12.20;62.70
49222;DHT22;35047;37.588;-122.048;2022-12-18T15:10:20;12.20;62.70
49222;DHT22;35047;37.588;-122.048;2022-12-18T15:13:08;12.00;62.70
49222;DHT22;35047;37.588;-122.048;2022-12-18T15:20:53;12.10;62.70
49222;DHT22;35047;37.588;-122.048;2022-12-18T15:26:13;12.10;62.70
49222;DHT22;35047;37.588;-122.048;2022-12-18T15:28:54;12.20;62.80
49222;DHT22;35047;37.588;-122.048;2022-12-18T15:31:23;12.10;63.00
49222;DHT22;35047;37.588;-122.048;2022-12-18T15:36:22;12.10;63.20
49222;DHT22;35047;37.588;-122.048;2022-12-18T15:38:50;12.20;63.20
49222;DHT22;35047;37.588;-122.048;2022-12-18T15:41:20;12.20;63.40
49222;DHT22;35047;37.588;-122.048;2022-12-18T15:43:52;12.20;63.50
49222;DHT22;35047;37.588;-122.048;2022-12-18T15:46:24;12.20;63.60
49222;DHT22;35047;37.588;-122.048;2022-12-18T15:48:56;12.10;63.70
49222;DHT22;35047;37.588;-122.048;2022-12-18T15:51:34;12.10;63.90
49222;DHT22;35047;37.588;-122.048;2022-12-18T15:54:04;12.10;64.00
49222;DHT22;35047;37.588;-122.048;2022-12-18T15:56:33;11.90;64.90
49222;DHT22;35047;37.588;-122.048;2022-12-18T15:59:19;12.00;64.70
49222;DHT22;35047;37.588;-122.048;2022-12-18T16:01:48;12.00;64.70
49222;DHT22;35047;37.588;-122.048;2022-12-18T16:04:18;12.10;64.60
49222;DHT22;35047;37.588;-122.048;2022-12-18T16:06:48;12.20;64.80
49222;DHT22;35047;37.588;-122.048;2022-12-18T16:09:14;12.20;64.80
49222;DHT22;35047;37.588;-122.048;2022-12-18T16:11:43;12.30;64.80
49222;DHT22;35047;37.588;-122.048;2022-12-18T16:14:24;12.30;64.80
49222;DHT22;35047;37.588;-122.048;2022-12-18T16:16:56;12.40;64.80
49222;DHT22;35047;37.588;-122.048;2022-12-18T16:19:25;12.30;64.90
49222;DHT22;35047;37.588;-122.048;2022-12-18T16:21:53;12.50;65.00
49222;DHT22;35047;37.588;-122.048;2022-12-18T16:24:26;12.50;65.10
49222;DHT22;35047;37.588;-122.048;2022-12-18T16:26:55;12.50;65.20
49222;DHT22;35047;37.588;-122.048;2022-12-18T16:29:22;12.60;64.90
49222;DHT22;35047;37.588;-122.048;2022-12-18T16:31:53;12.50;65.30
49222;DHT22;35047;37.588;-122.048;2022-12-18T16:34:28;12.60;65.90
49222;DHT22;35047;37.588;-122.048;2022-12-18T16:36:58;12.80;65.80
49222;DHT22;35047;37.588;-122.048;2022-12-18T16:39:26;13.00;66.10
49222;DHT22;35047;37.588;-122.048;2022-12-18T16:41:53;13.10;66.50
49222;DHT22;35047;37.588;-122.048;2022-12-18T16:44:19;13.20;66.90
49222;DHT22;35047;37.588;-122.048;2022-12-18T16:46:46;13.20;67.00
49222;DHT22;35047;37.588;-122.048;2022-12-18T16:49:15;13.00;68.00
49222;DHT22;35047;37.588;-122.048;2022-12-18T16:51:43;13.30;68.70
49222;DHT22;35047;37.588;-122.048;2022-12-18T16:54:10;13.80;68.60
49222;DHT22;35047;37.588;-122.048;2022-12-18T16:56:36;14.10;68.40
49222;DHT22;35047;37.588;-122.048;2022-12-18T16:59:04;14.50;68.20
49222;DHT22;35047;37.588;-122.048;2022-12-18T17:01:31;14.90;68.00
49222;DHT22;35047;37.588;-122.048;2022-12-18T17:04:00;15.40;67.10
49222;DHT22;35047;37.588;-122.048;2022-12-18T17:06:30;15.90;66.50
49222;DHT22;35047;37.588;-122.048;2022-12-18T17:08:58;16.50;64.60
49222;DHT22;35047;37.588;-122.048;2022-12-18T17:11:26;17.00;63.90
49222;DHT22;35047;37.588;-122.048;2022-12-18T17:13:54;17.60;62.40
49222;DHT22;35047;37.588;-122.048;2022-12-18T17:16:22;18.20;61.70
49222;DHT22;35047;37.588;-122.048;2022-12-18T17:18:50;18.70;67.00
49222;DHT22;35047;37.588;-122.048;2022-12-18T17:21:18;19.10;60.30
49222;DHT22;35047;37.588;-122.048;2022-12-18T17:23:45;19.60;59.10